Time;durP1;ratioP1;P1;durP2;ratioP2;P2;SDS_P1;SDS_P2;PMS_P1;PMS_P2;Temp;Humidity;BMP_temperature;BMP_pressure;BME280_temperature;BME280_humidity;BME280_pressure;Samples;Min_cycle;Max_cycle;Signal;HPM_P1;HPM_P2
2022/01/02 00:00:13;;;;;;;4.97;3.45;;;;;;;14.15;57.54;101189.75;680990;29;1350;-84
2022/01/02 00:00:40;;;;;;;5.18;3.72;;;;;;;14.25;57.47;101206.53;679324;29;1586;-84
2022/01/02 00:01:02;;;;;;;4.20;3.45;;;;;;;14.12;57.48;101189.66;682557;29;1188;-82
2022/01/02 00:01:24;;;;;;;4.82;3.60;;;;;;;14.13;57.76;101198.44;680527;29;1970;-83
2022/01/02 00:01:46;;;;;;;5.20;3.70;;;;;;;14.08;57.51;101191.28;679299;29;1195;-82
2022/01/02 00:02:09;;;;;;;4.60;3.80;;;;;;;14.14;57.59;101195.84;682474;29;1287;-82
2022/01/02 00:02:32;;;;;;;4.40;3.85;;;;;;;14.04;57.68;101181.59;677370;29;1519;-82
2022/01/02 00:02:58;;;;;;;4.40;3.70;;;;;;;14.04;57.79;101186.84;676121;29;1155;-82
2022/01/02 00:03:23;;;;;;;4.20;3.40;;;;;;;14.09;57.57;101197.44;676821;29;1182;-82
2022/01/02 00:03:48;;;;;;;4.47;3.50;;;;;;;14.08;57.70;101196.53;681484;29;1316;-82
2022/01/02 00:04:14;;;;;;;3.75;3.42;;;;;;;14.01;57.73;101178.03;678946;29;1212;-81
2022/01/02 00:04:36;;;;;;;3.85;3.50;;;;;;;14.05;57.87;101195.59;679792;29;1256;-82
2022/01/02 00:05:03;;;;;;;4.55;3.60;;;;;;;14.09;57.82;101192.19;676605;29;1396;-82
2022/01/02 00:05:24;;;;;;;4.80;3.40;;;;;;;14.01;57.80;101186.78;683104;28;1323;-82
2022/01/02 00:05:45;;;;;;;4.75;3.42;;;;;;;14.02;57.91;101193.78;682279;29;1488;-82
2022/01/02 00:06:07;;;;;;;4.93;3.60;;;;;;;14.01;57.66;101185.91;672110;29;1423;-82
2022/01/02 00:06:32;;;;;;;6.50;3.60;;;;;;;14.00;57.98;101194.63;677788;29;1256;-82
2022/01/02 00:06:54;;;;;;;8.25;3.88;;;;;;;13.96;57.90;101180.56;681882;29;1280;-82
2022/01/02 00:07:16;;;;;;;7.60;3.70;;;;;;;13.94;58.01;101183.16;677472;29;983;-81
2022/01/02 00:07:50;;;;;;;4.03;3.35;;;;;;;13.92;57.92;101179.63;680087;29;1348;-82
2022/01/02 00:08:11;;;;;;;3.40;3.10;;;;;;;13.96;57.96;101191.06;681388;28;1124;-82
2022/01/02 00:08:41;;;;;;;3.50;3.20;;;;;;;13.89;57.95;101179.53;681944;29;1440;-82
2022/01/02 00:09:04;;;;;;;3.40;3.10;;;;;;;13.91;58.06;101177.84;682205;29;1346;-83
2022/01/02 00:09:32;;;;;;;3.47;3.15;;;;;;;13.95;58.06;101190.16;676674;29;1629;-82
2022/01/02 00:09:54;;;;;;;5.63;3.25;;;;;;;13.89;58.30;101183.91;684272;28;1251;-83
2022/01/02 00:10:17;;;;;;;6.22;3.13;;;;;;;13.88;58.18;101187.41;680408;29;1053;-82
2022/01/02 00:10:48;;;;;;;4.90;3.20;;;;;;;13.84;58.13;101179.44;677065;29;1566;-82
2022/01/02 00:11:12;;;;;;;5.00;3.65;;;;;;;13.91;58.42;101190.97;681323;29;1268;-82
2022/01/02 00:11:33;;;;;;;5.07;3.60;;;;;;;13.91;58.27;101195.31;679676;29;1370;-82
2022/01/02 00:12:00;;;;;;;4.20;3.30;;;;;;;13.86;58.54;101184.72;679977;29;1367;-82
2022/01/02 00:12:22;;;;;;;3.80;3.38;;;;;;;13.87;58.23;101185.63;677033;29;1513;-83
2022/01/02 00:12:48;;;;;;;3.92;3.53;;;;;;;13.82;58.39;101186.41;680224;29;1428;-82
2022/01/02 00:13:14;;;;;;;4.00;3.60;;;;;;;13.79;58.18;101177.59;680449;29;1232;-82
2022/01/02 00:13:41;;;;;;;3.83;3.42;;;;;;;13.81;58.25;101196.84;679304;29;1502;-82
2022/01/02 00:14:11;;;;;;;7.38;3.70;;;;;;;13.91;58.26;101193.59;682173;29;1284;-83
2022/01/02 00:14:36;;;;;;;6.90;3.40;;;;;;;13.89;58.09;101187.41;680087;29;1319;-82
2022/01/02 00:14:58;;;;;;;4.68;3.30;;;;;;;13.92;58.25;101189.22;685009;28;1370;-82
2022/01/02 00:15:22;;;;;;;3.97;3.50;;;;;;;13.82;58.17;101180.25;677454;29;1140;-82
2022/01/02 00:15:44;;;;;;;4.55;3.85;;;;;;;13.82;58.33;101182.88;680452;28;1428;-81
2022/01/02 00:16:08;;;;;;;4.07;3.60;;;;;;;13.78;58.51;101178.44;679732;29;1402;-82
2022/01/02 00:16:29;;;;;;;3.72;3.40;;;;;;;13.80;58.26;101181.97;677316;29;1407;-81
2022/01/02 00:16:50;;;;;;;4.17;3.43;;;;;;;13.81;58.46;101184.63;677544;29;1375;-82
2022/01/02 00:17:12;;;;;;;5.80;3.78;;;;;;;13.74;58.53;101179.22;679595;29;1358;-81
2022/01/02 00:17:33;;;;;;;5.55;3.60;;;;;;;13.76;58.58;101193.28;679436;29;1375;-82
2022/01/02 00:17:56;;;;;;;3.75;3.20;;;;;;;13.74;58.43;101189.69;675446;29;1471;-82
2022/01/02 00:18:38;;;;;;;4.55;3.20;;;;;;;13.69;58.44;101187.88;685070;28;1354;-82
2022/01/02 00:19:07;;;;;;;4.97;3.75;;;;;;;13.77;58.68;101197.66;685221;28;1271;-81
2022/01/02 00:19:30;;;;;;;5.03;3.65;;;;;;;13.78;58.51;101196.81;676305;29;1340;-82
2022/01/02 00:19:57;;;;;;;4.13;3.63;;;;;;;13.69;58.76;101182.63;681919;28;1251;-83
2022/01/02 00:20:31;;;;;;;5.32;3.80;;;;;;;13.76;58.82;101198.50;682253;29;1284;-82
2022/01/02 00:20:52;;;;;;;5.47;4.00;;;;;;;13.81;58.40;101187.25;682681;29;1181;-82
2022/01/02 00:21:16;;;;;;;4.25;3.75;;;;;;;13.78;58.66;101191.56;681955;29;1457;-82
2022/01/02 00:21:42;;;;;;;4.00;3.20;;;;;;;13.79;58.54;101193.31;679220;28;1971;-82
2022/01/02 00:22:06;;;;;;;4.72;3.60;;;;;;;13.77;58.77;101188.03;678535;29;1205;-83
2022/01/02 00:22:35;;;;;;;6.20;3.92;;;;;;;13.79;58.64;101182.84;680078;29;825;-82
2022/01/02 00:23:08;;;;;;;5.10;3.50;;;;;;;13.75;58.79;101176.63;680592;29;1304;-83
2022/01/02 00:23:32;;;;;;;3.90;3.42;;;;;;;13.83;58.43;101185.53;682035;29;1320;-82
2022/01/02 00:24:03;;;;;;;4.38;3.58;;;;;;;13.77;58.46;101172.28;686761;28;1247;-82
2022/01/02 00:24:24;;;;;;;4.00;3.60;;;;;;;13.88;58.38;101172.53;687114;28;1278;-82
2022/01/02 00:24:45;;;;;;;4.10;3.67;;;;;;;13.94;58.16;101167.41;682348;29;1349;-82
2022/01/02 00:25:22;;;;;;;4.50;3.72;;;;;;;14.04;57.84;101178.09;682428;29;1453;-82
2022/01/02 00:25:42;;;;;;;5.40;3.67;;;;;;;14.02;57.80;101174.56;681126;29;1089;-82
2022/01/02 00:26:05;;;;;;;4.03;3.30;;;;;;;14.00;57.99;101168.41;674979;29;1422;-82
2022/01/02 00:26:39;;;;;;;3.63;3.17;;;;;;;14.00;57.95;101165.78;679654;29;1352;-81
2022/01/02 00:27:00;;;;;;;3.97;3.42;;;;;;;13.96;58.12;101163.06;681693;29;1352;-82
2022/01/02 00:27:22;;;;;;;5.95;3.60;;;;;;;13.94;57.90;101151.66;679679;29;1174;-82
2022/01/02 00:27:44;;;;;;;6.65;3.60;;;;;;;13.95;57.97;101158.69;681998;29;1349;-82
2022/01/02 00:28:06;;;;;;;6.18;3.70;;;;;;;13.94;57.72;101150.78;676753;29;1304;-82
2022/01/02 00:28:27;;;;;;;5.82;3.88;;;;;;;14.01;58.04;101167.53;679937;29;1149;-82
2022/01/02 00:28:48;;;;;;;6.20;3.70;;;;;;;13.98;57.88;101169.25;679708;29;1161;-82
2022/01/02 00:29:10;;;;;;;6.88;3.70;;;;;;;14.01;58.11;101172.78;679825;28;1264;-82
2022/01/02 00:29:31;;;;;;;5.43;3.45;;;;;;;14.14;57.91;101171.31;679482;29;1343;-82
2022/01/02 00:29:53;;;;;;;5.95;3.97;;;;;;;14.17;57.93;101180.16;682058;29;2129;-82
2022/01/02 00:30:14;;;;;;;5.05;3.78;;;;;;;14.11;57.79;101169.53;679820;29;1402;-82
2022/01/02 00:30:35;;;;;;;4.25;3.45;;;;;;;14.15;57.19;101165.22;684269;28;1324;-82
2022/01/02 00:30:57;;;;;;;4.13;3.27;;;;;;;14.18;57.59;101165.25;682249;28;1172;-82
2022/01/02 00:31:18;;;;;;;4.35;3.58;;;;;;;14.19;57.33;101175.81;680394;29;1441;-82
2022/01/02 00:31:39;;;;;;;4.53;3.78;;;;;;;14.18;57.36;101166.16;678512;29;1181;-82
2022/01/02 00:32:01;;;;;;;4.30;3.90;;;;;;;14.18;57.23;101162.63;677258;29;1292;-83
2022/01/02 00:32:22;;;;;;;4.72;3.70;;;;;;;14.22;57.22;101165.38;676950;29;1418;-82
2022/01/02 00:32:44;;;;;;;4.20;3.30;;;;;;;14.24;57.32;101166.28;679364;29;1387;-82
2022/01/02 00:33:04;;;;;;;4.93;3.70;;;;;;;14.18;57.44;101160.91;679524;29;1299;-82
2022/01/02 00:33:25;;;;;;;4.10;3.70;;;;;;;14.14;57.29;101159.09;682737;28;1443;-81
2022/01/02 00:33:46;;;;;;;5.07;3.88;;;;;;;14.19;57.52;101162.69;682617;28;1306;-82
2022/01/02 00:34:08;;;;;;;4.47;3.60;;;;;;;14.19;57.07;101167.06;680091;28;1180;-82
2022/01/02 00:34:29;;;;;;;4.38;3.55;;;;;;;14.06;57.30;101161.53;681867;29;1096;-83
2022/01/02 00:34:53;;;;;;;3.78;3.40;;;;;;;14.18;57.39;101167.88;683143;28;1420;-82
2022/01/02 00:35:14;;;;;;;3.92;3.53;;;;;;;14.07;57.66;101165.06;678454;29;1319;-82
2022/01/02 00:35:41;;;;;;;4.30;3.70;;;;;;;13.97;57.79;101156.97;679277;29;1209;-82
2022/01/02 00:36:04;;;;;;;4.10;3.70;;;;;;;13.98;57.68;101163.09;679935;29;1388;-82
2022/01/02 00:36:25;;;;;;;5.22;3.70;;;;;;;13.95;57.92;101163.94;684837;28;1360;-83
2022/01/02 00:36:46;;;;;;;4.85;3.50;;;;;;;13.94;57.66;101156.91;687272;28;1294;-82
2022/01/02 00:37:07;;;;;;;4.97;3.40;;;;;;;13.92;57.87;101156.00;682157;29;1385;-82
2022/01/02 00:37:28;;;;;;;4.80;3.35;;;;;;;14.00;58.06;101171.03;687181;28;1275;-82
2022/01/02 00:37:49;;;;;;;5.30;3.40;;;;;;;13.96;57.93;101168.31;682335;28;1905;-83
2022/01/02 00:38:18;;;;;;;5.70;3.50;;;;;;;13.86;57.91;101148.00;684913;28;1394;-82
2022/01/02 00:38:39;;;;;;;5.55;3.70;;;;;;;13.89;57.85;101155.94;679183;29;1287;-82
2022/01/02 00:39:00;;;;;;;5.22;3.88;;;;;;;13.91;57.99;101162.13;686491;28;1348;-82
2022/01/02 00:39:21;;;;;;;4.30;3.60;;;;;;;13.90;57.98;101160.31;682086;29;1176;-82
2022/01/02 00:39:43;;;;;;;4.20;3.45;;;;;;;13.91;58.19;101150.72;674971;29;1181;-83
2022/01/02 00:40:03;;;;;;;3.72;3.40;;;;;;;13.90;58.06;101154.19;678877;29;1256;-83
2022/01/02 00:40:25;;;;;;;3.70;3.40;;;;;;;13.93;58.16;101157.78;679740;29;1161;-83
2022/01/02 00:40:48;;;;;;;3.97;3.47;;;;;;;13.90;58.17;101151.56;684653;28;1473;-82
2022/01/02 00:41:09;;;;;;;4.15;3.40;;;;;;;13.86;58.15;101153.25;679500;28;1245;-83
2022/01/02 00:41:56;;;;;;;5.15;3.47;;;;;;;13.91;58.11;101159.50;677215;29;1964;-83
2022/01/02 00:42:24;;;;;;;6.78;3.90;;;;;;;13.87;57.89;101149.78;683231;28;1289;-82
2022/01/02 00:42:52;;;;;;;6.03;3.83;;;;;;;13.77;58.06;101143.44;681326;29;1323;-82
2022/01/02 00:43:22;;;;;;;4.70;3.65;;;;;;;13.78;57.95;101134.72;682186;28;1350;-82
2022/01/02 00:43:48;;;;;;;4.43;3.80;;;;;;;13.77;58.34;101143.44;679543;29;1376;-82
2022/01/02 00:44:47;;;;;;;4.68;3.80;;;;;;;13.86;58.10;101161.13;680823;29;1957;-82
2022/01/02 00:45:27;;;;;;;4.13;3.70;;;;;;;13.77;58.43;101156.56;676010;29;1417;-84
2022/01/02 00:45:51;;;;;;;3.60;3.30;;;;;;;13.76;58.15;101148.69;682338;29;1117;-82
2022/01/02 00:46:14;;;;;;;4.65;3.22;;;;;;;13.79;58.08;101148.72;684873;28;1461;-83
2022/01/02 00:46:55;;;;;;;4.70;3.10;;;;;;;13.80;57.99;101158.38;681718;29;1422;-82
2022/01/02 00:47:28;;;;;;;4.07;3.30;;;;;;;13.79;58.10;101152.25;682343;28;1456;-83
2022/01/02 00:47:59;;;;;;;3.85;3.40;;;;;;;13.88;57.80;101172.53;678346;29;1285;-83
2022/01/02 00:48:24;;;;;;;4.10;3.70;;;;;;;13.78;58.36;101171.44;679688;29;1315;-82
2022/01/02 00:48:47;;;;;;;4.57;3.88;;;;;;;13.65;58.53;101159.81;679818;28;1360;-82
2022/01/02 00:49:10;;;;;;;4.53;3.60;;;;;;;13.70;58.32;101173.00;679490;29;1406;-83
2022/01/02 00:49:40;;;;;;;4.68;3.40;;;;;;;13.62;58.43;101151.88;677037;29;1271;-82
2022/01/02 00:50:12;;;;;;;3.90;3.10;;;;;;;13.79;58.24;101153.97;681226;29;1390;-82
2022/01/02 00:50:37;;;;;;;3.67;3.20;;;;;;;13.78;57.94;101160.06;681506;29;1299;-82
2022/01/02 00:51:35;;;;;;;3.55;3.25;;;;;;;13.83;57.90;101153.19;679812;29;1231;-82
2022/01/02 00:52:03;;;;;;;4.63;3.80;;;;;;;13.80;58.17;101155.75;674488;29;1311;-82
2022/01/02 00:52:47;;;;;;;4.95;3.70;;;;;;;13.81;57.88;101155.78;680603;28;1723;-82
2022/01/02 00:53:11;;;;;;;4.40;3.60;;;;;;;13.76;58.05;101146.06;678666;29;1315;-82
2022/01/02 00:53:34;;;;;;;4.20;3.30;;;;;;;13.74;58.03;101155.59;674067;29;1386;-81
2022/01/02 00:53:59;;;;;;;3.80;3.40;;;;;;;13.60;58.45;101150.97;681657;29;1257;-82
2022/01/02 00:54:22;;;;;;;4.10;3.70;;;;;;;13.74;58.09;101159.13;685101;28;1521;-82
2022/01/02 00:54:45;;;;;;;4.05;3.65;;;;;;;13.78;58.33;101171.44;684542;28;1239;-83
2022/01/02 00:55:12;;;;;;;3.92;3.63;;;;;;;13.77;57.74;101156.56;679149;29;1492;-82
2022/01/02 00:55:35;;;;;;;4.10;3.70;;;;;;;13.74;58.13;101156.50;682265;29;1612;-83
2022/01/02 00:55:57;;;;;;;4.00;3.60;;;;;;;13.76;58.21;101156.53;684998;28;1322;-82
2022/01/02 00:56:22;;;;;;;3.67;3.30;;;;;;;13.69;58.33;101159.03;685473;28;1016;-82
2022/01/02 00:56:45;;;;;;;4.00;3.33;;;;;;;13.59;58.53;101151.81;684966;28;1369;-82
2022/01/02 00:57:11;;;;;;;4.03;3.50;;;;;;;13.64;58.37;101167.66;679240;29;1410;-82
2022/01/02 00:57:36;;;;;;;3.97;3.58;;;;;;;13.62;58.74;101164.09;679447;29;1296;-82
2022/01/02 00:57:59;;;;;;;3.67;3.38;;;;;;;13.69;58.55;101161.66;682359;29;1507;-83
2022/01/02 00:59:01;;;;;;;4.00;3.30;;;;;;;13.75;58.37;101154.78;684082;28;1083;-82
2022/01/02 00:59:28;;;;;;;5.32;3.50;;;;;;;13.90;57.89;101156.81;685804;28;1291;-83
2022/01/02 01:00:06;;;;;;;4.72;3.55;;;;;;;13.96;57.65;101154.34;679533;29;1394;-83
2022/01/02 01:00:30;;;;;;;4.70;3.40;;;;;;;13.87;57.67;101149.78;681764;29;1376;-82
2022/01/02 01:00:53;;;;;;;6.10;3.52;;;;;;;13.77;57.89;101145.19;690456;28;1324;-82
2022/01/02 01:01:15;;;;;;;5.22;3.30;;;;;;;13.78;57.72;101149.59;680579;29;1354;-82
2022/01/02 01:01:37;;;;;;;5.93;3.67;;;;;;;13.82;57.65;101156.66;686518;28;1920;-82
2022/01/02 01:02:03;;;;;;;4.47;3.70;;;;;;;13.79;57.71;101153.97;687276;28;1585;-82
2022/01/02 01:02:31;;;;;;;4.65;3.58;;;;;;;13.71;57.97;101141.59;677337;29;1076;-82
2022/01/02 01:02:56;;;;;;;3.80;3.40;;;;;;;13.73;57.85;101152.13;679588;29;1296;-81
2022/01/02 01:03:23;;;;;;;3.75;3.45;;;;;;;13.76;58.08;101162.66;682239;28;1076;-82
2022/01/02 01:03:45;;;;;;;3.80;3.40;;;;;;;13.73;57.87;101156.47;679728;29;1346;-82
2022/01/02 01:04:20;;;;;;;3.53;3.20;;;;;;;13.74;57.83;101153.88;679740;29;1383;-83
2022/01/02 01:04:43;;;;;;;4.60;3.50;;;;;;;13.76;58.09;101159.16;679238;29;1146;-82
2022/01/02 01:05:06;;;;;;;5.18;3.78;;;;;;;13.67;57.97;101152.88;680261;28;1362;-83
2022/01/02 01:05:31;;;;;;;5.32;3.70;;;;;;;13.73;57.96;101162.59;686038;28;1389;-83
2022/01/02 01:05:53;;;;;;;4.85;3.60;;;;;;;13.64;58.06;101152.78;685194;28;1552;-83
2022/01/02 01:06:17;;;;;;;5.32;3.67;;;;;;;13.68;58.23;101162.50;680097;29;1346;-83
2022/01/02 01:06:39;;;;;;;5.25;3.50;;;;;;;13.68;58.33;101165.13;679807;29;1222;-83
2022/01/02 01:07:05;;;;;;;5.05;3.50;;;;;;;13.72;58.22;101171.34;683080;28;1413;-82
2022/01/02 01:07:25;;;;;;;4.07;3.28;;;;;;;13.64;58.32;101170.28;687822;28;1249;-82
2022/01/02 01:08:00;;;;;;;3.95;3.40;;;;;;;13.69;58.07;101166.91;679782;29;1010;-83
2022/01/02 01:08:24;;;;;;;4.95;3.70;;;;;;;13.70;57.82;101173.91;674558;29;1508;-82
2022/01/02 01:08:45;;;;;;;5.18;3.60;;;;;;;13.76;57.91;101169.66;687474;28;1282;-82
2022/01/02 01:09:05;;;;;;;5.15;3.40;;;;;;;13.69;58.14;101164.28;684339;28;1370;-83
2022/01/02 01:09:27;;;;;;;4.73;3.57;;;;;;;13.68;58.14;101165.13;674206;29;1222;-82
2022/01/02 01:09:48;;;;;;;4.38;3.60;;;;;;;13.77;58.19;101168.81;677244;29;1533;-82
2022/01/02 01:10:11;;;;;;;4.43;3.63;;;;;;;13.71;57.86;101159.94;681417;29;1370;-82
2022/01/02 01:10:38;;;;;;;8.82;3.78;;;;;;;13.72;58.00;101160.84;683845;28;1361;-82
2022/01/02 01:11:05;;;;;;;9.50;3.67;;;;;;;13.69;57.72;101150.25;677009;29;1279;-81
2022/01/02 01:11:27;;;;;;;5.00;3.25;;;;;;;13.72;57.83;101150.34;677504;29;1278;-82
2022/01/02 01:11:48;;;;;;;3.90;3.10;;;;;;;13.78;57.84;101162.69;679744;29;1220;-82
2022/01/02 01:12:10;;;;;;;3.78;3.00;;;;;;;13.80;57.81;101163.59;681595;29;1360;-82
2022/01/02 01:12:31;;;;;;;4.10;3.00;;;;;;;13.75;57.72;101154.78;682571;29;925;-83
2022/01/02 01:12:54;;;;;;;4.95;3.35;;;;;;;13.81;57.99;101165.38;682508;29;1337;-83
2022/01/02 01:13:15;;;;;;;5.78;3.40;;;;;;;13.73;57.81;101145.97;677052;29;1470;-82
2022/01/02 01:13:36;;;;;;;6.18;3.70;;;;;;;13.78;57.90;101160.06;677155;29;1403;-82
2022/01/02 01:13:59;;;;;;;4.80;3.35;;;;;;;13.74;57.79;101156.50;676952;29;1208;-83
2022/01/02 01:14:20;;;;;;;4.07;3.45;;;;;;;13.76;57.89;101161.78;684868;28;1445;-83
2022/01/02 01:14:42;;;;;;;4.75;3.25;;;;;;;13.69;57.88;101147.66;684667;28;1585;-82
2022/01/02 01:15:06;;;;;;;4.63;3.30;;;;;;;13.81;57.92;101165.38;684860;28;1345;-83
2022/01/02 01:15:28;;;;;;;4.70;3.50;;;;;;;13.78;58.01;101166.19;679710;29;1542;-82
2022/01/02 01:15:50;;;;;;;4.32;3.70;;;;;;;13.82;57.94;101161.91;682103;28;1293;-82
2022/01/02 01:16:11;;;;;;;4.25;3.80;;;;;;;13.88;57.60;101162.03;679634;29;1432;-82
2022/01/02 01:16:32;;;;;;;4.30;3.80;;;;;;;13.91;57.44;101154.25;679676;29;1337;-83
2022/01/02 01:16:53;;;;;;;4.35;3.90;;;;;;;13.92;57.26;101147.25;683543;28;1335;-82
2022/01/02 01:17:15;;;;;;;4.10;3.70;;;;;;;13.95;57.22;101147.31;681885;29;1374;-82
2022/01/02 01:17:38;;;;;;;5.38;4.03;;;;;;;14.01;57.09;101147.41;682159;29;1429;-82
2022/01/02 01:18:01;;;;;;;4.95;3.75;;;;;;;14.01;57.09;101143.94;676887;29;1246;-82
2022/01/02 01:18:23;;;;;;;4.53;3.60;;;;;;;13.98;57.33;101144.75;678731;29;1271;-82
2022/01/02 01:18:44;;;;;;;5.03;3.45;;;;;;;13.97;57.19;101151.72;677081;29;1177;-82
2022/01/02 01:19:05;;;;;;;5.40;3.50;;;;;;;14.01;57.02;101155.28;681581;29;1393;-82
2022/01/02 01:19:26;;;;;;;5.90;3.50;;;;;;;14.05;56.99;101151.00;678049;29;1426;-82
2022/01/02 01:19:47;;;;;;;6.18;3.60;;;;;;;14.09;56.97;101152.84;679790;29;1366;-83
2022/01/02 01:20:12;;;;;;;6.50;3.80;;;;;;;14.08;56.76;101151.06;684868;28;1420;-82
2022/01/02 01:20:42;;;;;;;6.00;4.05;;;;;;;14.11;56.85;101159.03;679690;29;1113;-82
2022/01/02 01:21:03;;;;;;;5.25;3.90;;;;;;;14.07;56.69;101155.41;675640;29;1364;-82
2022/01/02 01:21:25;;;;;;;5.93;4.05;;;;;;;14.08;56.59;101153.69;675176;29;1905;-82
2022/01/02 01:21:46;;;;;;;5.97;3.50;;;;;;;14.14;56.19;101166.06;674333;29;1229;-82
2022/01/02 01:22:08;;;;;;;5.05;3.60;;;;;;;14.08;56.63;101158.94;679806;29;1107;-82
2022/01/02 01:22:29;;;;;;;4.82;3.40;;;;;;;14.13;56.25;101169.56;682489;29;1207;-83
2022/01/02 01:22:51;;;;;;;3.90;3.50;;;;;;;14.15;56.48;101166.13;677046;29;1211;-82
2022/01/02 01:23:16;;;;;;;4.05;3.50;;;;;;;14.11;56.54;101159.03;674360;29;1370;-82
2022/01/02 01:23:37;;;;;;;4.45;3.80;;;;;;;14.13;56.50;101159.06;679584;29;1365;-83
2022/01/02 01:23:58;;;;;;;4.40;3.80;;;;;;;14.06;56.39;101165.88;677782;29;1280;-82
2022/01/02 01:24:19;;;;;;;4.00;3.60;;;;;;;14.03;56.52;101171.97;675416;29;986;-83
2022/01/02 01:24:39;;;;;;;5.10;3.67;;;;;;;14.01;56.58;101167.53;673773;29;1317;-83
2022/01/02 01:25:01;;;;;;;5.90;3.90;;;;;;;14.06;56.81;101181.63;680027;29;934;-83
2022/01/02 01:25:23;;;;;;;5.72;3.65;;;;;;;14.05;56.77;101174.59;679886;29;1346;-83
2022/01/02 01:25:46;;;;;;;4.40;3.65;;;;;;;14.03;56.72;101171.06;679654;29;1376;-83
2022/01/02 01:26:09;;;;;;;4.00;3.60;;;;;;;14.05;56.78;101180.75;681866;29;1328;-82
2022/01/02 01:26:30;;;;;;;3.90;3.50;;;;;;;14.00;56.55;101177.13;683732;28;1374;-83
2022/01/02 01:26:53;;;;;;;5.60;3.73;;;;;;;13.98;56.51;101174.50;681498;28;1140;-83
2022/01/02 01:27:14;;;;;;;5.50;3.70;;;;;;;14.01;56.66;101181.53;684935;28;1281;-82
2022/01/02 01:27:35;;;;;;;5.32;3.70;;;;;;;13.98;56.63;101177.13;681299;29;1176;-82
2022/01/02 01:28:04;;;;;;;4.00;3.60;;;;;;;13.97;56.71;101172.72;679235;29;1243;-83
2022/01/02 01:28:26;;;;;;;4.30;3.90;;;;;;;14.03;56.78;101181.56;682156;28;1405;-82
2022/01/02 01:28:47;;;;;;;4.10;3.70;;;;;;;14.04;56.78;101183.34;682232;28;1330;-83
2022/01/02 01:29:07;;;;;;;4.35;3.80;;;;;;;14.05;56.38;101182.47;686408;28;1527;-82
2022/01/02 01:29:33;;;;;;;5.00;3.70;;;;;;;14.05;56.46;101183.38;685431;28;1420;-83
2022/01/02 01:30:10;;;;;;;5.03;3.80;;;;;;;14.15;56.42;101197.59;684469;28;1287;-82
2022/01/02 01:30:30;;;;;;;4.28;3.88;;;;;;;14.16;56.04;101188.88;684912;28;1334;-83
2022/01/02 01:30:51;;;;;;;4.43;4.03;;;;;;;14.16;56.05;101188.88;679046;29;1219;-83
2022/01/02 01:31:12;;;;;;;4.18;3.60;;;;;;;14.17;56.10;101193.28;683609;28;1275;-82
2022/01/02 01:31:32;;;;;;;3.85;3.45;;;;;;;14.13;56.37;101182.69;684927;28;1394;-83
2022/01/02 01:31:53;;;;;;;4.00;3.60;;;;;;;14.15;56.07;101187.13;678791;29;1454;-82
2022/01/02 01:32:14;;;;;;;4.10;3.70;;;;;;;14.11;56.14;101185.25;679641;29;1244;-83
2022/01/02 01:32:35;;;;;;;5.10;3.50;;;;;;;14.22;55.96;101199.50;682278;29;1281;-83
2022/01/02 01:32:56;;;;;;;5.53;3.50;;;;;;;14.24;55.90;101197.78;684969;28;1361;-83
2022/01/02 01:33:16;;;;;;;5.90;3.70;;;;;;;14.14;55.88;101182.72;684609;28;1286;-82
2022/01/02 01:33:37;;;;;;;5.00;3.83;;;;;;;14.17;55.76;101201.13;682281;28;1271;-83
2022/01/02 01:33:58;;;;;;;4.15;3.30;;;;;;;14.16;56.04;101187.97;685211;28;1313;-83
2022/01/02 01:34:19;;;;;;;3.50;3.20;;;;;;;14.23;55.87;101200.38;683370;28;1366;-83
2022/01/02 01:34:39;;;;;;;3.50;3.20;;;;;;;14.17;55.71;101185.41;679148;29;1296;-83
2022/01/02 01:35:02;;;;;;;3.70;3.40;;;;;;;14.25;55.65;101196.94;682384;29;1282;-83
2022/01/02 01:35:23;;;;;;;4.18;3.30;;;;;;;14.21;55.30;101187.22;681649;29;1386;-83
2022/01/02 01:35:44;;;;;;;4.85;3.40;;;;;;;14.31;55.57;101195.28;680857;29;1237;-83
2022/01/02 01:36:05;;;;;;;5.25;3.60;;;;;;;14.27;55.43;101196.06;678167;29;1295;-82
2022/01/02 01:36:25;;;;;;;4.57;3.63;;;;;;;14.27;55.31;101196.06;687684;28;1099;-83
2022/01/02 01:36:46;;;;;;;4.80;3.90;;;;;;;14.30;55.23;101185.63;684042;28;1405;-83
2022/01/02 01:37:07;;;;;;;4.25;3.67;;;;;;;14.36;55.47;101196.25;674414;29;1427;-83
2022/01/02 01:37:31;;;;;;;4.50;3.55;;;;;;;14.41;54.86;101197.22;682483;29;1428;-83
2022/01/02 01:37:52;;;;;;;4.93;3.20;;;;;;;14.39;54.99;101201.56;683513;28;1436;-83
2022/01/02 01:38:13;;;;;;;5.22;3.38;;;;;;;14.41;55.15;101188.44;677222;28;1404;-83
2022/01/02 01:38:34;;;;;;;4.28;3.35;;;;;;;14.44;54.93;101186.75;675390;29;1387;-83
2022/01/02 01:38:55;;;;;;;4.33;3.20;;;;;;;14.44;54.98;101194.66;678746;29;1291;-82
2022/01/02 01:39:15;;;;;;;4.63;3.05;;;;;;;14.47;54.78;101199.97;681989;29;1418;-83
2022/01/02 01:39:36;;;;;;;4.97;3.05;;;;;;;14.46;54.48;101190.31;679074;29;1279;-83
2022/01/02 01:39:57;;;;;;;3.80;3.10;;;;;;;14.53;54.72;101201.81;679315;29;1275;-82
2022/01/02 01:40:19;;;;;;;3.20;2.90;;;;;;;14.50;54.68;101194.75;687505;28;1341;-83
2022/01/02 01:41:10;;;;;;;3.05;2.70;;;;;;;14.51;54.72;101183.41;683544;28;1178;-83
2022/01/02 01:41:36;;;;;;;4.30;3.00;;;;;;;14.52;54.30;101174.66;679587;29;1989;-82
2022/01/02 01:42:06;;;;;;;3.80;2.83;;;;;;;14.56;54.31;101187.88;680740;28;1402;-83
2022/01/02 01:42:41;;;;;;;4.60;2.80;;;;;;;14.50;54.11;101175.50;678558;29;1228;-82
2022/01/02 01:43:03;;;;;;;3.08;2.80;;;;;;;14.58;53.97;101171.28;677092;29;1316;-82
2022/01/02 01:43:37;;;;;;;3.53;3.00;;;;;;;14.59;54.02;101162.53;678551;29;1288;-83
2022/01/02 01:45:40;;;;;;;8.82;3.90;;;;;;;14.74;53.48;101167.16;677100;29;1260;-82
2022/01/02 01:46:01;;;;;;;4.03;3.08;;;;;;;14.72;53.29;101173.25;681097;28;1377;-83
2022/01/02 01:46:21;;;;;;;3.33;2.78;;;;;;;14.71;53.55;101161.88;682352;29;1066;-83
2022/01/02 01:46:42;;;;;;;5.10;3.10;;;;;;;14.76;53.33;101170.69;674315;29;1346;-82
2022/01/02 01:47:04;;;;;;;5.20;3.40;;;;;;;14.78;53.46;101163.75;677150;29;1357;-83
2022/01/02 01:47:25;;;;;;;4.83;3.37;;;;;;;14.73;53.47;101160.16;682197;29;1428;-83
2022/01/02 01:47:47;;;;;;;3.53;3.10;;;;;;;14.79;53.54;101168.13;674255;29;1284;-82
2022/01/02 01:48:08;;;;;;;3.28;2.97;;;;;;;14.74;53.52;101169.78;676664;29;1502;-82
2022/01/02 01:48:31;;;;;;;3.13;2.83;;;;;;;14.67;53.44;101160.03;676759;29;1406;-83
2022/01/02 01:48:55;;;;;;;3.90;2.80;;;;;;;14.77;53.47;101167.22;681440;29;1148;-82
2022/01/02 01:49:18;;;;;;;4.50;2.90;;;;;;;14.75;53.16;101171.56;679360;29;1290;-83
2022/01/02 01:49:39;;;;;;;5.63;3.10;;;;;;;14.74;53.36;101176.81;683884;28;1195;-83
2022/01/02 01:49:59;;;;;;;4.97;3.17;;;;;;;14.71;53.15;101161.88;684915;28;1166;-82
2022/01/02 01:50:24;;;;;;;4.47;3.20;;;;;;;14.87;53.28;101170.00;679532;28;1308;-83
2022/01/02 01:50:45;;;;;;;3.20;2.90;;;;;;;14.88;52.93;101169.16;680598;28;1347;-83
2022/01/02 01:51:12;;;;;;;4.80;3.13;;;;;;;14.92;52.97;101177.09;681466;29;1652;-83
2022/01/02 01:51:38;;;;;;;5.95;3.20;;;;;;;14.95;52.98;101186.78;682349;28;1433;-83
2022/01/02 01:51:59;;;;;;;5.60;3.28;;;;;;;14.89;53.23;101189.31;678009;29;1236;-82
2022/01/02 01:52:20;;;;;;;6.25;3.10;;;;;;;14.78;53.35;101178.59;682143;28;1422;-84
2022/01/02 01:52:41;;;;;;;6.60;3.20;;;;;;;14.83;53.38;101181.31;681700;28;1605;-83
2022/01/02 01:53:02;;;;;;;6.63;3.38;;;;;;;14.76;53.49;101175.94;682510;29;1019;-83
2022/01/02 01:53:23;;;;;;;5.43;3.15;;;;;;;14.79;53.58;101186.53;682349;28;1231;-82
2022/01/02 01:53:44;;;;;;;5.95;3.05;;;;;;;14.66;53.64;101177.56;679644;28;1315;-83
2022/01/02 01:54:04;;;;;;;4.80;2.80;;;;;;;14.72;53.49;101186.38;679440;29;1192;-83
2022/01/02 01:54:25;;;;;;;5.40;2.97;;;;;;;14.74;53.56;101177.69;680014;28;1145;-82
2022/01/02 01:54:46;;;;;;;3.55;2.90;;;;;;;14.75;53.34;101174.19;682242;28;1223;-82
2022/01/02 01:55:07;;;;;;;3.90;3.20;;;;;;;14.78;53.24;101175.97;682321;29;1136;-83
2022/01/02 01:55:29;;;;;;;3.60;3.17;;;;;;;14.83;53.21;101181.31;679929;29;867;-83
2022/01/02 01:55:49;;;;;;;3.80;3.20;;;;;;;14.83;53.41;101191.81;674619;29;1186;-83
2022/01/02 01:56:10;;;;;;;3.22;2.92;;;;;;;14.84;53.30;101175.19;677683;29;1239;-83
2022/01/02 01:56:31;;;;;;;2.92;2.72;;;;;;;14.90;53.04;101178.84;679681;29;1434;-82
2022/01/02 01:56:53;;;;;;;3.00;2.60;;;;;;;14.93;53.17;101193.75;682450;28;1204;-84